LELN

Leon Airport

León, Spain
TAF LELN 191700Z 1918/2003 VRB05KT 9999 FEW045 PROB40 TEMPO 1918/1920 31010KT
Issued Valid From Valid To
Sep-19 @ 17:00 UTC
(8 hours ago)
Sep-19 @ 18:00 UTC
(7 hours ago)
Sep-20 @ 03:00 UTC
(in 2 hours)
Sep-19 @ 18:00 to Sep-20 @ 03:00
TAF LELN 191700Z 1918/2003 VRB05KT 9999 FEW045
Wind Visibility Clouds
Variable at 5 knots 10,000+ meters
  • Few at 4,500' AGL
Expired Click to View Sep-19 @ 18:00 to Sep-19 @ 20:00
PROB40 TEMPO 1918/1920 31010KT
Wind
310° at 10 knots
TAF LELN 191700Z 1918/2003 VRB05KT 9999 FEW045 PROB40 TEMPO 1918/1920 31010KT
Issued Sep-19 @ 17:00 UTC
(8 hours ago)
Valid From Sep-19 @ 18:00 UTC
(7 hours ago)
Valid To Sep-20 @ 03:00 UTC
(in 2 hours)
Sep-19 @ 18:00 - Sep-20 @ 03:00
Wind Visibility
Variable at 5 knots 10,000+ meters
Clouds
  • Few at 4,500' AGL
Sep-19 @ 18:00 - Sep-19 @ 20:00
Wind
310° at 10 knots